createdAt,value
2023-07-06T00:00:20.677Z,96367.88
2023-07-06T00:02:47.060Z,96369.03
2023-07-06T00:05:13.426Z,96365.06
2023-07-06T00:07:39.835Z,96368.34
2023-07-06T00:10:07.536Z,96364.66
2023-07-06T00:12:33.883Z,96370.59
2023-07-06T00:15:00.248Z,96365.34
2023-07-06T00:17:26.616Z,96330.28
2023-07-06T00:19:52.966Z,96282.78
2023-07-06T00:22:19.336Z,96264.50
2023-07-06T00:24:45.687Z,96247.06
2023-07-06T00:27:12.037Z,96240.75
2023-07-06T00:29:38.396Z,96255.75
2023-07-06T00:32:04.758Z,96258.19
2023-07-06T00:34:31.118Z,96265.16
2023-07-06T00:36:57.481Z,96262.84
2023-07-06T00:39:23.836Z,96267.56
2023-07-06T00:41:51.829Z,96240.63
2023-07-06T00:44:18.471Z,96233.34
2023-07-06T00:46:44.839Z,96217.00
2023-07-06T00:49:11.196Z,96224.91
2023-07-06T00:51:37.563Z,96230.81
2023-07-06T00:54:03.930Z,96225.16
2023-07-06T00:56:30.277Z,96222.59
2023-07-06T00:58:56.681Z,96211.81
2023-07-06T01:01:23.048Z,96242.41
2023-07-06T01:03:49.514Z,96242.97
2023-07-06T01:06:15.971Z,96202.19
2023-07-06T01:08:42.318Z,96190.34
2023-07-06T01:11:08.671Z,96190.53
2023-07-06T01:13:35.099Z,96165.94
2023-07-06T01:16:01.562Z,96165.84
2023-07-06T01:18:28.078Z,96155.72
2023-07-06T01:20:54.445Z,96173.72
2023-07-06T01:23:20.801Z,96170.91
2023-07-06T01:25:47.148Z,96186.94
2023-07-06T01:28:13.627Z,96164.97
2023-07-06T01:30:40.492Z,96160.66
2023-07-06T01:33:07.994Z,96165.34
2023-07-06T01:35:34.345Z,96144.63
2023-07-06T01:38:00.699Z,96138.22
2023-07-06T01:40:27.061Z,96149.06
2023-07-06T01:42:53.434Z,96154.34
2023-07-06T01:45:19.791Z,96174.94
2023-07-06T01:47:46.178Z,96181.53
2023-07-06T01:50:12.574Z,96186.41
2023-07-06T01:52:38.934Z,96155.34
2023-07-06T01:55:05.325Z,96135.50
2023-07-06T01:57:31.958Z,96124.22
2023-07-06T02:00:00.198Z,96123.53
2023-07-06T02:02:33.739Z,96126.34
2023-07-06T02:05:00.164Z,96129.94
2023-07-06T02:07:26.509Z,96129.84
2023-07-06T02:09:52.940Z,96122.47
2023-07-06T02:12:19.318Z,96117.03
2023-07-06T02:14:45.679Z,96127.69
2023-07-06T02:17:12.046Z,96137.31
2023-07-06T02:19:38.411Z,96133.28
2023-07-06T02:22:04.753Z,96116.16
2023-07-06T02:24:31.111Z,96120.94
2023-07-06T02:26:57.487Z,96134.41
2023-07-06T02:29:23.838Z,96135.63
2023-07-06T02:31:50.190Z,96128.50
2023-07-06T02:34:16.548Z,96131.88
2023-07-06T02:36:42.898Z,96132.94
2023-07-06T02:39:09.225Z,96141.88
2023-07-06T02:41:35.594Z,96137.66
2023-07-06T02:44:01.936Z,96144.41
2023-07-06T02:46:28.305Z,96143.47
2023-07-06T02:48:54.889Z,96145.53
2023-07-06T02:51:21.234Z,96133.84
2023-07-06T02:53:47.571Z,96132.31
2023-07-06T02:56:13.933Z,96126.94
2023-07-06T02:58:40.277Z,96149.41
2023-07-06T03:01:06.614Z,96160.44
2023-07-06T03:03:33.050Z,96157.97
2023-07-06T03:05:59.534Z,96159.59
2023-07-06T03:08:26.131Z,96149.53
2023-07-06T03:10:52.546Z,96141.13
2023-07-06T03:13:18.972Z,96144.41
2023-07-06T03:15:45.379Z,96157.91
2023-07-06T03:18:11.764Z,96168.94
2023-07-06T03:20:38.125Z,96162.69
2023-07-06T03:23:04.481Z,96157.72
2023-07-06T03:25:30.860Z,96164.94
2023-07-06T03:27:57.213Z,96166.56
2023-07-06T03:30:23.556Z,96170.91
2023-07-06T03:32:49.944Z,96168.13
2023-07-06T03:35:16.344Z,96160.25
2023-07-06T03:37:42.792Z,96157.91
2023-07-06T03:40:09.174Z,96179.38
2023-07-06T03:42:35.522Z,96166.72
2023-07-06T03:45:01.896Z,96156.28
2023-07-06T03:47:28.349Z,96152.56
2023-07-06T03:49:54.756Z,96149.53
2023-07-06T03:52:21.108Z,96136.41
2023-07-06T03:54:47.473Z,96154.03
2023-07-06T03:57:13.819Z,96159.16
2023-07-06T03:59:41.289Z,96157.19
2023-07-06T04:02:07.654Z,96173.91
2023-07-06T04:04:33.999Z,96170.75
2023-07-06T04:07:00.348Z,96162.81
2023-07-06T04:09:26.712Z,96164.19
2023-07-06T04:11:53.057Z,96157.97
2023-07-06T04:14:19.404Z,96162.31
2023-07-06T04:16:45.798Z,96167.66
2023-07-06T04:19:12.156Z,96181.03
2023-07-06T04:21:38.502Z,96181.38
2023-07-06T04:24:04.866Z,96189.19
2023-07-06T04:26:31.210Z,96194.84
2023-07-06T04:28:57.547Z,96192.47
2023-07-06T04:31:23.971Z,96180.25
2023-07-06T04:33:50.385Z,96193.66
2023-07-06T04:36:16.732Z,96182.13
2023-07-06T04:38:43.100Z,96185.56
2023-07-06T04:41:09.449Z,96192.97
2023-07-06T04:43:37.920Z,96201.53
2023-07-06T04:46:04.287Z,96193.59
2023-07-06T04:48:30.656Z,96183.94
2023-07-06T04:50:57.071Z,96193.38
2023-07-06T04:53:23.435Z,96182.97
2023-07-06T04:55:49.775Z,96195.06
2023-07-06T04:58:16.123Z,96192.38
2023-07-06T05:00:42.515Z,96182.84
2023-07-06T05:03:09.114Z,96169.75
2023-07-06T05:05:35.585Z,96170.84
2023-07-06T05:08:01.977Z,96167.53
2023-07-06T05:10:28.327Z,96177.84
2023-07-06T05:12:54.704Z,96189.75
2023-07-06T05:15:21.096Z,96193.44
2023-07-06T05:17:47.561Z,96200.69
2023-07-06T05:20:13.988Z,96195.81
2023-07-06T05:22:40.396Z,96202.72
2023-07-06T05:25:06.749Z,96201.81
2023-07-06T05:27:33.078Z,96203.59
2023-07-06T05:29:59.451Z,96206.00
2023-07-06T05:32:25.831Z,96229.97
2023-07-06T05:34:52.207Z,96216.38
2023-07-06T05:37:34.048Z,96227.59
2023-07-06T05:40:01.938Z,96224.84
2023-07-06T05:42:28.294Z,96236.06
2023-07-06T05:44:54.634Z,96216.78
2023-07-06T05:47:20.999Z,96202.94
2023-07-06T05:49:47.368Z,96232.97
2023-07-06T05:52:13.728Z,96245.75
2023-07-06T05:54:40.103Z,96235.50
2023-07-06T05:57:10.012Z,96246.59
2023-07-06T05:59:36.379Z,96241.09
2023-07-06T06:02:02.770Z,96263.47
2023-07-06T06:04:29.211Z,96264.69
2023-07-06T06:06:55.589Z,96250.69
2023-07-06T06:09:21.936Z,96262.44
2023-07-06T06:11:48.291Z,96294.31
2023-07-06T06:14:14.645Z,96271.59
2023-07-06T06:16:40.995Z,96265.63
2023-07-06T06:19:07.371Z,96266.38
2023-07-06T06:21:33.720Z,96274.78
2023-07-06T06:24:00.085Z,96261.44
2023-07-06T06:26:28.276Z,96281.75
2023-07-06T06:28:55.881Z,96281.88
2023-07-06T06:31:22.259Z,96275.81
2023-07-06T06:33:48.666Z,96276.69
2023-07-06T06:36:15.019Z,96280.09
2023-07-06T06:38:41.481Z,96282.97
2023-07-06T06:41:07.848Z,96272.34
2023-07-06T06:43:34.209Z,96260.38
2023-07-06T06:46:00.876Z,96250.25
2023-07-06T06:48:27.437Z,96278.75
2023-07-06T06:50:53.777Z,96263.56
2023-07-06T06:53:20.133Z,96252.59
2023-07-06T06:55:46.504Z,96233.81
2023-07-06T06:58:12.860Z,96247.66
2023-07-06T07:00:39.198Z,96263.72
2023-07-06T07:03:05.553Z,96256.09
2023-07-06T07:05:31.897Z,96233.47
2023-07-06T07:07:58.244Z,96240.94
2023-07-06T07:10:24.740Z,96233.59
2023-07-06T07:12:51.112Z,96260.28
2023-07-06T07:15:17.446Z,96242.47
2023-07-06T07:17:43.838Z,96262.88
2023-07-06T07:20:10.246Z,96268.00
2023-07-06T07:22:36.597Z,96256.00
2023-07-06T07:25:03.029Z,96262.88
2023-07-06T07:27:29.516Z,96271.88
2023-07-06T07:29:55.889Z,96269.47
2023-07-06T07:32:22.385Z,96258.47
2023-07-06T07:34:48.754Z,96263.84
2023-07-06T07:37:15.101Z,96260.16
2023-07-06T07:39:41.563Z,96272.25
2023-07-06T07:42:07.939Z,96283.31
2023-07-06T07:44:34.289Z,96281.94
2023-07-06T07:47:00.651Z,96283.22
2023-07-06T07:49:27.019Z,96276.00
2023-07-06T07:51:53.379Z,96311.50
2023-07-06T07:54:19.757Z,96320.84
2023-07-06T07:56:46.119Z,96304.31
2023-07-06T07:59:13.305Z,96296.78
2023-07-06T08:01:41.304Z,96287.59
2023-07-06T08:04:07.897Z,96301.88
2023-07-06T08:06:34.291Z,96303.50
2023-07-06T08:09:00.671Z,96295.63
2023-07-06T08:11:27.029Z,96299.06
2023-07-06T08:13:53.400Z,96315.09
2023-07-06T08:16:19.837Z,96314.66
2023-07-06T08:18:46.244Z,96316.28
2023-07-06T08:21:40.013Z,96314.31
2023-07-06T08:23:59.404Z,96324.34
2023-07-06T08:26:25.764Z,96321.78
2023-07-06T08:28:52.654Z,96322.84
2023-07-06T08:31:21.439Z,96319.44
2023-07-06T08:33:48.012Z,96310.84
2023-07-06T08:36:14.351Z,96318.03
2023-07-06T08:38:40.825Z,96332.06
2023-07-06T08:41:07.160Z,96330.38
2023-07-06T08:43:33.519Z,96339.31
2023-07-06T08:45:59.939Z,96351.81
2023-07-06T08:48:26.295Z,96360.19
2023-07-06T08:50:52.642Z,96353.66
2023-07-06T08:53:19.008Z,96363.38
2023-07-06T08:55:45.390Z,96391.84
2023-07-06T08:58:11.836Z,96385.69
2023-07-06T09:00:38.210Z,96368.44
2023-07-06T09:03:04.625Z,96360.41
2023-07-06T09:05:31.031Z,96389.13
2023-07-06T09:07:57.499Z,96403.22
2023-07-06T09:10:26.164Z,96398.94
2023-07-06T09:12:53.201Z,96400.19
2023-07-06T09:15:19.583Z,96393.56
2023-07-06T09:17:45.977Z,96402.94
2023-07-06T09:20:12.330Z,96402.88
2023-07-06T09:22:38.713Z,96389.47
2023-07-06T09:25:05.094Z,96400.88
2023-07-06T09:27:31.502Z,96399.75
2023-07-06T09:29:57.970Z,96393.31
2023-07-06T09:32:24.353Z,96375.75
2023-07-06T09:34:50.719Z,96388.19
2023-07-06T09:37:17.078Z,96376.00
2023-07-06T09:39:43.433Z,96390.53
2023-07-06T09:42:09.798Z,96391.53
2023-07-06T09:44:36.232Z,96391.81
2023-07-06T09:47:02.743Z,96382.53
2023-07-06T09:49:29.117Z,96389.25
2023-07-06T09:51:55.495Z,96382.34
2023-07-06T09:54:21.837Z,96385.13
2023-07-06T09:56:48.196Z,96385.41
2023-07-06T09:59:14.556Z,96381.00
2023-07-06T10:01:40.952Z,96381.81
2023-07-06T10:04:07.293Z,96376.38
2023-07-06T10:06:33.675Z,96381.72
2023-07-06T10:09:00.007Z,96380.47
2023-07-06T10:11:26.382Z,96384.13
2023-07-06T10:13:52.827Z,96383.38
2023-07-06T10:16:19.251Z,96385.69
2023-07-06T10:18:45.612Z,96383.06
2023-07-06T10:21:11.982Z,96378.88
2023-07-06T10:23:38.338Z,96376.31
2023-07-06T10:26:04.903Z,96384.34
2023-07-06T10:28:31.623Z,96381.94
2023-07-06T10:30:58.014Z,96368.06
2023-07-06T10:33:24.378Z,96371.09
2023-07-06T10:35:50.742Z,96363.88
2023-07-06T10:38:17.091Z,96375.31
2023-07-06T10:40:43.452Z,96365.13
2023-07-06T10:43:09.961Z,96374.78
2023-07-06T10:45:36.366Z,96375.94
2023-07-06T10:48:02.744Z,96369.94
2023-07-06T10:50:29.197Z,96366.84
2023-07-06T10:52:55.541Z,96361.25
2023-07-06T10:55:21.892Z,96369.41
2023-07-06T10:57:48.257Z,96349.66
2023-07-06T11:00:14.608Z,96356.25
2023-07-06T11:02:41.052Z,96356.09
2023-07-06T11:05:07.531Z,96369.53
2023-07-06T11:07:33.882Z,96351.50
2023-07-06T11:10:00.207Z,96349.97
2023-07-06T11:12:26.576Z,96359.44
2023-07-06T11:14:52.925Z,96361.72
2023-07-06T11:17:19.337Z,96357.41
2023-07-06T11:19:45.740Z,96361.84
2023-07-06T11:22:12.109Z,96349.34
2023-07-06T11:24:38.493Z,96357.88
2023-07-06T11:27:04.865Z,96373.41
2023-07-06T11:29:31.210Z,96372.88
2023-07-06T11:31:57.649Z,96353.69
2023-07-06T11:34:24.036Z,96367.47
2023-07-06T11:36:50.398Z,96364.34
2023-07-06T11:39:16.749Z,96344.66
2023-07-06T11:41:43.119Z,96341.09
2023-07-06T11:44:09.490Z,96355.28
2023-07-06T11:46:35.922Z,96347.97
2023-07-06T11:49:02.349Z,96350.91
2023-07-06T11:51:28.755Z,96352.09
2023-07-06T11:53:55.107Z,96344.72
2023-07-06T11:56:21.536Z,96339.81
2023-07-06T11:58:47.862Z,96351.19
2023-07-06T12:01:14.230Z,96343.72
2023-07-06T12:03:40.649Z,96343.72
2023-07-06T12:06:07.040Z,96360.91
2023-07-06T12:08:33.376Z,96359.84
2023-07-06T12:10:59.746Z,96360.94
2023-07-06T12:13:26.133Z,96344.91
2023-07-06T12:15:52.537Z,96348.09
2023-07-06T12:18:18.962Z,96348.31
2023-07-06T12:20:45.324Z,96319.53
2023-07-06T12:23:11.671Z,96287.66
2023-07-06T12:25:38.034Z,96280.78
2023-07-06T12:28:04.394Z,96279.88
2023-07-06T12:30:30.742Z,96296.78
2023-07-06T12:32:57.199Z,96281.56
2023-07-06T12:35:23.570Z,96299.22
2023-07-06T12:37:49.907Z,96281.16
2023-07-06T12:40:16.285Z,96286.19
2023-07-06T12:42:42.640Z,96306.94
2023-07-06T12:45:09.634Z,96323.53
2023-07-06T12:47:36.135Z,96314.72
2023-07-06T12:50:02.483Z,96304.78
2023-07-06T12:52:28.824Z,96310.59
2023-07-06T12:54:55.215Z,96306.81
2023-07-06T12:57:21.787Z,96307.81
2023-07-06T12:59:48.368Z,96308.47
2023-07-06T13:02:14.778Z,96308.13
2023-07-06T13:04:41.196Z,96292.69
2023-07-06T13:07:10.343Z,96289.47
2023-07-06T13:09:36.701Z,96291.47
2023-07-06T13:12:03.043Z,96280.75
2023-07-06T13:14:29.396Z,96284.59
2023-07-06T13:16:55.839Z,96286.44
2023-07-06T13:19:22.235Z,96279.00
2023-07-06T13:21:48.585Z,96282.91
2023-07-06T13:24:14.959Z,96287.66
2023-07-06T13:26:41.304Z,96286.78
2023-07-06T13:29:07.646Z,96284.78
2023-07-06T13:31:52.091Z,96284.63
2023-07-06T13:34:20.323Z,96275.81
2023-07-06T13:36:46.678Z,96272.47
2023-07-06T13:39:13.034Z,96267.44
2023-07-06T13:41:39.427Z,96272.97
2023-07-06T13:44:05.811Z,96270.00
2023-07-06T13:46:32.214Z,96268.06
2023-07-06T13:48:58.664Z,96262.34
2023-07-06T13:51:25.034Z,96255.94
2023-07-06T13:53:51.370Z,96265.38
2023-07-06T13:56:17.710Z,96275.19
2023-07-06T13:58:44.215Z,96261.91
2023-07-06T14:01:10.604Z,96281.22
2023-07-06T14:03:37.031Z,96278.25
2023-07-06T14:06:03.479Z,96282.66
2023-07-06T14:08:29.839Z,96278.06
2023-07-06T14:10:56.181Z,96279.00
2023-07-06T14:13:22.590Z,96287.31
2023-07-06T14:15:48.934Z,96252.94
2023-07-06T14:18:15.277Z,96173.81
2023-07-06T14:20:41.651Z,96134.03
2023-07-06T14:23:08.006Z,96132.19
2023-07-06T14:25:34.390Z,96113.06
2023-07-06T14:28:00.793Z,96094.84
2023-07-06T14:30:27.150Z,96055.66
2023-07-06T14:32:53.526Z,96114.66
2023-07-06T14:35:19.933Z,96118.03
2023-07-06T14:37:46.364Z,96117.53
2023-07-06T14:40:12.801Z,96118.91
2023-07-06T14:42:39.192Z,96144.75
2023-07-06T14:45:05.529Z,96135.25
2023-07-06T14:47:31.876Z,96112.25
2023-07-06T14:49:58.348Z,96088.16
2023-07-06T14:52:24.734Z,96066.16
2023-07-06T14:54:51.085Z,96074.91
2023-07-06T14:57:17.480Z,96108.13
2023-07-06T14:59:43.832Z,96086.50
2023-07-06T15:02:10.173Z,96063.75
2023-07-06T15:04:36.922Z,96051.06
2023-07-06T15:07:03.257Z,96038.97
2023-07-06T15:09:30.823Z,96067.97
2023-07-06T15:11:57.308Z,96071.38
2023-07-06T15:14:23.643Z,96081.19
2023-07-06T15:16:50.018Z,96081.69
2023-07-06T15:19:16.385Z,96086.09
2023-07-06T15:21:42.711Z,96084.03
2023-07-06T15:24:09.048Z,96087.13
2023-07-06T15:26:35.396Z,96084.88
2023-07-06T15:29:01.724Z,96109.63
2023-07-06T15:31:28.073Z,96108.34
2023-07-06T15:33:54.458Z,96111.28
2023-07-06T15:36:20.789Z,96128.38
2023-07-06T15:38:47.118Z,96124.53
2023-07-06T15:41:13.467Z,96115.22
2023-07-06T15:43:39.802Z,96113.81
2023-07-06T15:46:06.133Z,96201.13
2023-07-06T15:48:32.599Z,96209.66
2023-07-06T15:50:58.983Z,96220.75
2023-07-06T15:53:25.300Z,96171.41
2023-07-06T15:55:51.655Z,96134.16
2023-07-06T15:58:17.988Z,96160.50
2023-07-06T16:00:44.349Z,96184.28
2023-07-06T16:03:10.806Z,96140.84
2023-07-06T16:05:37.236Z,96139.06
2023-07-06T16:08:03.588Z,96136.22
2023-07-06T16:10:29.964Z,96129.72
2023-07-06T16:12:56.317Z,96134.69
2023-07-06T16:15:22.647Z,96139.84
2023-07-06T16:17:49.023Z,96133.38
2023-07-06T16:20:15.352Z,96154.97
2023-07-06T16:22:41.700Z,96203.84
2023-07-06T16:25:08.069Z,96220.69
2023-07-06T16:27:34.410Z,96199.16
2023-07-06T16:30:00.745Z,96208.50
2023-07-06T16:32:27.124Z,96194.88
2023-07-06T16:34:53.474Z,96201.25
2023-07-06T16:37:19.815Z,96226.19
2023-07-06T16:39:46.177Z,96208.84
2023-07-06T16:42:12.513Z,96201.34
2023-07-06T16:44:38.842Z,96210.69
2023-07-06T16:47:05.190Z,96220.78
2023-07-06T16:49:31.530Z,96223.88
2023-07-06T16:51:57.877Z,96210.16
2023-07-06T16:54:24.239Z,96193.88
2023-07-06T16:56:50.589Z,96215.56
2023-07-06T16:59:16.896Z,96226.38
2023-07-06T17:01:43.273Z,96191.03
2023-07-06T17:04:09.657Z,96191.31
2023-07-06T17:06:36.032Z,96189.75
2023-07-06T17:09:02.380Z,96174.25
2023-07-06T17:11:28.726Z,96180.50
2023-07-06T17:13:55.111Z,96168.66
2023-07-06T17:16:21.560Z,96168.13
2023-07-06T17:18:47.906Z,96169.41
2023-07-06T17:21:14.229Z,96173.56
2023-07-06T17:23:40.575Z,96178.72
2023-07-06T17:26:06.906Z,96187.44
2023-07-06T17:28:33.389Z,96181.28
2023-07-06T17:30:59.881Z,96191.38
2023-07-06T17:33:26.207Z,96206.59
2023-07-06T17:35:52.566Z,96201.94
2023-07-06T17:38:19.034Z,96208.13
2023-07-06T17:40:45.364Z,96182.06
2023-07-06T17:43:11.701Z,96164.00
2023-07-06T17:45:38.085Z,96161.91
2023-07-06T17:48:04.505Z,96186.94
2023-07-06T17:50:30.863Z,96198.81
2023-07-06T17:52:57.204Z,96196.75
2023-07-06T17:55:23.543Z,96200.88
2023-07-06T17:57:49.873Z,96186.91
2023-07-06T18:00:16.234Z,96182.03
2023-07-06T18:02:42.573Z,96184.59
2023-07-06T18:05:08.932Z,96177.91
2023-07-06T18:07:35.269Z,96159.00
2023-07-06T18:10:01.617Z,96161.06
2023-07-06T18:12:27.959Z,96167.50
2023-07-06T18:14:54.327Z,96157.16
2023-07-06T18:17:20.671Z,96175.50
2023-07-06T18:19:47.021Z,96163.88
2023-07-06T18:22:13.458Z,96171.13
2023-07-06T18:24:39.808Z,96189.31
2023-07-06T18:27:06.188Z,96194.25
2023-07-06T18:29:32.558Z,96196.28
2023-07-06T18:31:58.984Z,96204.53
2023-07-06T18:34:25.432Z,96210.97
2023-07-06T18:36:51.827Z,96215.19
2023-07-06T18:39:18.197Z,96223.13
2023-07-06T18:41:44.560Z,96226.66
2023-07-06T18:44:10.936Z,96214.91
2023-07-06T18:46:37.293Z,96214.16
2023-07-06T18:49:03.646Z,96213.31
2023-07-06T18:51:30.010Z,96223.84
2023-07-06T18:53:56.350Z,96224.56
2023-07-06T18:56:22.718Z,96227.41
2023-07-06T18:58:49.274Z,96227.66
2023-07-06T19:01:15.682Z,96225.84
2023-07-06T19:03:42.191Z,96218.16
2023-07-06T19:06:16.100Z,96225.13
2023-07-06T19:08:43.763Z,96216.25
2023-07-06T19:11:10.128Z,96222.88
2023-07-06T19:13:36.514Z,96216.75
2023-07-06T19:16:02.898Z,96227.09
2023-07-06T19:18:29.259Z,96219.31
2023-07-06T19:20:55.633Z,96224.22
2023-07-06T19:23:21.988Z,96220.56
2023-07-06T19:25:48.386Z,96221.56
2023-07-06T19:28:14.816Z,96227.88
2023-07-06T19:30:41.190Z,96225.56
2023-07-06T19:33:07.565Z,96228.00
2023-07-06T19:35:33.915Z,96231.06
2023-07-06T19:38:00.274Z,96241.31
2023-07-06T19:40:26.642Z,96236.19
2023-07-06T19:42:52.987Z,96243.88
2023-07-06T19:45:19.329Z,96249.47
2023-07-06T19:47:45.778Z,96254.78
2023-07-06T19:50:12.132Z,96270.63
2023-07-06T19:52:38.494Z,96271.63
2023-07-06T19:55:05.986Z,96284.06
2023-07-06T19:57:43.307Z,96295.81
2023-07-06T20:00:11.664Z,96310.44
2023-07-06T20:02:38.116Z,96312.03
2023-07-06T20:05:04.497Z,96307.53
2023-07-06T20:07:30.859Z,96319.22
2023-07-06T20:09:57.197Z,96320.72
2023-07-06T20:12:23.551Z,96322.25
2023-07-06T20:14:49.939Z,96318.94
2023-07-06T20:17:16.289Z,96320.13
2023-07-06T20:19:42.634Z,96321.22
2023-07-06T20:22:09.004Z,96324.59
2023-07-06T20:24:35.408Z,96330.91
2023-07-06T20:27:01.814Z,96331.81
2023-07-06T20:29:28.218Z,96326.94
2023-07-06T20:31:54.570Z,96328.19
2023-07-06T20:34:20.919Z,96327.16
2023-07-06T20:36:47.293Z,96331.31
2023-07-06T20:39:13.654Z,96335.19
2023-07-06T20:41:40.006Z,96341.97
2023-07-06T20:44:06.368Z,96345.16
2023-07-06T20:46:32.774Z,96350.63
2023-07-06T20:48:59.139Z,96349.78
2023-07-06T20:51:25.494Z,96358.06
2023-07-06T20:53:51.839Z,96351.34
2023-07-06T20:56:18.187Z,96346.72
2023-07-06T20:58:44.564Z,96348.34
2023-07-06T21:01:10.900Z,96346.59
2023-07-06T21:03:37.278Z,96349.97
2023-07-06T21:06:03.652Z,96351.03
2023-07-06T21:08:29.979Z,96354.47
2023-07-06T21:10:56.550Z,96352.50
2023-07-06T21:13:23.142Z,96352.72
2023-07-06T21:15:49.528Z,96358.13
2023-07-06T21:18:15.882Z,96361.06
2023-07-06T21:20:42.291Z,96368.97
2023-07-06T21:23:08.649Z,96370.25
2023-07-06T21:25:34.989Z,96365.81
2023-07-06T21:28:01.356Z,96360.22
2023-07-06T21:30:27.699Z,96371.84
2023-07-06T21:32:54.108Z,96377.19
2023-07-06T21:35:20.521Z,96376.78
2023-07-06T21:37:46.865Z,96364.50
2023-07-06T21:40:13.236Z,96367.25
2023-07-06T21:42:39.613Z,96366.25
2023-07-06T21:45:05.983Z,96366.66
2023-07-06T21:47:32.394Z,96368.34
2023-07-06T21:49:58.783Z,96367.72
2023-07-06T21:52:25.121Z,96381.53
2023-07-06T21:54:51.482Z,96383.34
2023-07-06T21:57:17.855Z,96374.84
2023-07-06T21:59:44.209Z,96382.56
2023-07-06T22:02:10.550Z,96380.94
2023-07-06T22:04:36.914Z,96372.78
2023-07-06T22:07:03.271Z,96366.22
2023-07-06T22:09:29.650Z,96372.88
2023-07-06T22:11:56.028Z,96382.22
2023-07-06T22:14:22.368Z,96376.88
2023-07-06T22:16:48.769Z,96386.59
2023-07-06T22:19:15.137Z,96385.19
2023-07-06T22:21:41.475Z,96396.63
2023-07-06T22:24:07.830Z,96393.66
2023-07-06T22:26:34.193Z,96403.06
2023-07-06T22:29:00.539Z,96401.75
2023-07-06T22:31:26.931Z,96402.06
2023-07-06T22:33:53.397Z,96399.31
2023-07-06T22:36:19.743Z,96399.66
2023-07-06T22:38:46.130Z,96410.50
2023-07-06T22:41:12.572Z,96408.09
2023-07-06T22:43:38.940Z,96409.88
2023-07-06T22:46:05.343Z,96407.81
2023-07-06T22:48:31.745Z,96409.50
2023-07-06T22:50:58.163Z,96406.34
2023-07-06T22:53:24.568Z,96415.16
2023-07-06T22:55:50.938Z,96412.16
2023-07-06T22:58:17.310Z,96404.16
2023-07-06T23:00:43.655Z,96404.41
2023-07-06T23:03:10.132Z,96404.81
2023-07-06T23:05:36.549Z,96403.56
2023-07-06T23:08:02.890Z,96405.63
2023-07-06T23:10:29.259Z,96407.25
2023-07-06T23:12:55.617Z,96398.59
2023-07-06T23:15:21.975Z,96400.75
2023-07-06T23:17:48.409Z,96408.16
2023-07-06T23:20:14.801Z,96404.34
2023-07-06T23:22:41.157Z,96404.81
2023-07-06T23:25:07.527Z,96406.16
2023-07-06T23:27:33.877Z,96406.22
2023-07-06T23:30:00.275Z,96399.41
2023-07-06T23:32:26.685Z,96392.09
2023-07-06T23:34:53.062Z,96401.78
2023-07-06T23:37:19.396Z,96410.06
2023-07-06T23:39:45.749Z,96397.63
2023-07-06T23:42:12.108Z,96403.25
2023-07-06T23:44:38.461Z,96401.94
2023-07-06T23:47:05.013Z,96399.22
2023-07-06T23:49:31.349Z,96403.06
2023-07-06T23:51:57.696Z,96398.66
2023-07-06T23:54:24.122Z,96395.72
2023-07-06T23:56:50.533Z,96397.56
2023-07-06T23:59:16.884Z,96395.91
